St. George, Utah Weather observations

Data are for observation ending at time listed.
 Day   Time    Ave.   Ave.  Ave.  Vector   Max.   Stn.    Total    Solar   Ave.  
  of    of     Air    Rel.  Wind   Wind    Wind   Baro.  Precip.   Rad.    Soil  
Year   Day     Temp.  Hum.  Speed  Dir.    Gust   Pres.                    Temp. 
2016   (MST)    F      %     mph   deg.    mph     mb.     in.     W/m2     F   
------------------------------------------------------------------------------
 237   11:50   88.1    26    1.5   183      5.5   921.9    0.00     910    80.7
 237   12:00   88.1    26    1.8   224      8.9   921.8    0.00     746    80.9
 237   12:10   88.9    25    2.2   167      6.6   921.5    0.00     939    81.1
 237   12:20   89.0    25    3.2   193      7.5   921.4    0.00     632    81.2
 237   12:30   89.9    24    2.6   190      7.2   921.1    0.00     953    81.5
 237   12:40   90.4    23    2.9   220      8.0   921.1    0.00     912    81.7
 237   12:50   89.8    24    3.9   178      8.9   920.8    0.00     897    81.9
 237   13:00   90.4    23    3.9   206      8.7   920.6    0.00     888    82.1
 237   13:10   91.7    22    2.4   230      8.8   920.4    0.00     880    82.3
 237   13:20   92.1    22    1.3   302      5.6   920.2    0.00     686    82.5
 237   13:30   92.1    22    3.2   188      7.2   920.1    0.00     868    82.7
 237   13:40   92.4    22    1.2   188      5.8   919.8    0.00     855    82.9
 237   13:50   94.0    20    2.5   233     10.7   919.6    0.00     846    83.2
 237   14:00   93.8    18    2.1   230      5.3   919.5    0.00     837    83.4
 237   14:10   94.4    18    1.5   202      5.8   919.4    0.00     827    83.6
 237   14:20   94.9    19    1.7   205      8.2   919.3    0.00     814    83.8
 237   14:30   95.3    18    1.2   276      5.4   919.2    0.00     802    84.1
 237   14:40   95.1    18    3.5   210      9.8   918.9    0.00     790    84.2
 237   14:50   94.6    17    6.4   195     12.4   918.6    0.00     779    84.4
 237   15:00   95.0    17    7.1   208     13.5   918.5    0.00     795    84.6
 237   15:10   95.7    16    7.2   226     16.1   918.3    0.00     777    84.8
 237   15:20   95.8    16    4.9   238      9.9   918.3    0.00     719    85.0
 237   15:30   96.2    15    5.8   236     14.3   918.2    0.00     685    85.2
 237   15:40   95.7    14    6.9   208     11.5   918.0    0.00     663    85.5
 237   15:50   96.2    14    6.6   218     15.0   917.8    0.00     641    85.6
 237   16:00   96.9    14    6.0   230     17.2   917.6    0.00     619    85.8
 237   16:10   96.6    14    6.3   232     13.7   917.6    0.00     596    85.9
 237   16:20   96.6    14    7.8   231     14.2   917.6    0.00     572    86.1
 237   16:30   96.4    14    7.0   236     15.1   917.6    0.00     544    86.2
 237   16:40   96.1    14    6.6   223     13.5   917.6    0.00     517    86.3
 237   16:50   95.8    14    7.6   224     16.0   917.5    0.00     480    86.5
 237   17:00   95.7    14    6.7   230     11.6   917.4    0.00     435    86.6
 237   17:10   95.8    14    5.2   218     10.2   917.4    0.00     395    86.6
 237   17:20   95.3    14    5.8   213     10.4   917.3    0.00     356    86.7
 237   17:30   95.3    14    5.0   241     11.5   917.3    0.00     327    86.8
 237   17:40   95.3    14    4.7   236     10.4   917.1    0.00     301    86.8
 237   17:50   95.0    14    5.2   227      8.8   917.0    0.00     256    86.9
 237   18:00   94.8    15    3.2   244      8.2   917.0    0.00     215    86.9
 237   18:10   94.6    14    3.9   228      8.1   916.9    0.00     183    86.9
 237   18:20   94.5    14    3.6   231      7.2   916.9    0.00     144    86.9
 237   18:30   94.0    14    3.2   242      7.0   916.9    0.00     122    86.9
 237   18:40   93.4    14    2.9   247      6.2   916.9    0.00     102    86.9
 237   18:50   93.3    14    3.7   236      7.0   916.9    0.00      60    86.8
 237   19:00   92.7    14    1.7   247      4.5   916.9    0.00      24    86.8
 237   19:10   92.0    14    1.8   261      5.9   916.9    0.00      11    86.8
 237   19:20   91.5    14    2.3   261      6.6   917.0    0.00       5    86.7
 237   19:30   91.1    14    1.3   264      6.2   917.0    0.00       3    86.6
 237   19:40   90.1    15    0.8   261      2.8   917.0    0.00       0    86.6
 237   19:50   89.6    15    1.2   269      5.4   917.0    0.00       0    86.5
 237   20:00   89.2    16    0.4   276      2.1   917.1    0.00       0    86.5
 237   20:10   88.5    16    0.2   255      1.4   917.1    0.00       0    86.4
 237   20:20   88.0    17    0.2   282      1.2   917.2    0.00       0    86.3
 237   20:30   87.7    18    1.2   324      3.6   917.3    0.00       0    86.2
 237   20:40   87.9    18    2.3   327      3.7   917.4    0.00       0    86.1
 237   20:50   88.1    17    0.9   310      3.4   917.6    0.00       0    86.0
 237   21:00   87.9    18    1.2   182      3.9   917.6    0.00       0    85.9
 237   21:10   86.5    20    0.5   158      1.6   917.7    0.00       0    85.9
 237   21:20   85.0    22    1.1   326      2.5   917.8    0.00       0    85.8
 237   21:30   84.7    22    1.4    35      2.5   917.8    0.00       0    85.7
 237   21:40   84.8    21    1.0    31      2.1   917.8    0.00       0    85.6
 237   21:50   84.4    23    0.4    64      1.6   917.8    0.00       0    85.5
 237   22:00   83.2    24    1.0   339      2.3   917.8    0.00       0    85.5
 237   22:10   82.5    24    1.9   291      4.5   917.8    0.00       0    85.4
 237   22:20   83.9    21    2.1    24      4.2   917.7    0.00       0    85.3
 237   22:30   84.0    22    0.8   209      2.2   917.8    0.00       0    85.2
 237   22:40   82.4    24    0.6    24      1.9   917.7    0.00       0    85.1
 237   22:50   82.4    24    1.4    66      4.3   917.8    0.00       0    85.0
 237   23:00   82.1    24    0.5   246      1.9   917.9    0.00       0    85.0
 237   23:10   80.5    27    0.4     3      1.5   918.0    0.00       0    84.9
 237   23:20   80.6    26    1.0    54      2.5   918.0    0.00       0    84.8
 237   23:30   80.1    26    0.2   240      1.4   917.9    0.00       0    84.7
 237   23:40   79.0    28    0.4   217      1.5   918.0    0.00       0    84.7
 237   23:50   78.7    27    0.1    52      1.4   918.1    0.00       0    84.5
 238    0:00   79.3    26    1.2    17      2.6   918.1    0.00       0    84.5
 238    0:10   81.0    23    1.9    12      4.0   918.1    0.00       0    84.4
 238    0:20   81.1    23    1.6    24      3.3   918.1    0.00       0    84.3
 238    0:30   81.0    23    2.7    24      6.1   918.1    0.00       0    84.2
 238    0:40   81.1    24    2.2    31      5.0   918.1    0.00       0    84.1
 238    0:50   81.1    24    2.5    52      6.8   918.1    0.00       0    84.0
 238    1:00   81.6    23    2.5    67      6.8   918.2    0.00       0    83.9
 238    1:10   81.6    23    1.0   113      2.6   918.2    0.00       0    83.9
 238    1:20   80.3    24    1.8    72      6.7   918.2    0.00       0    83.8
 238    1:30   80.5    24    3.1    62      5.7   918.1    0.00       0    83.7
 238    1:40   80.5    24    2.9    61      8.7   918.2    0.00       0    83.6
 238    1:50   80.0    25    2.2    55      6.9   918.3    0.00       0    83.5
 238    2:00   80.0    25    3.2    65      7.9   918.3    0.00       0    83.4
 238    2:10   80.0    25    2.7    66      5.0   918.3    0.00       0    83.4
 238    2:20   79.7    25    2.5    66      6.7   918.3    0.00       0    83.3
 238    2:30   79.7    25    2.6    77      5.6   918.4    0.00       0    83.2
 238    2:40   79.3    26    1.9    81      7.0   918.5    0.00       0    83.1
 238    2:50   79.1    26    2.2    73      5.3   918.6    0.00       0    83.0
 238    3:00   79.0    27    3.0    67      8.1   918.6    0.00       0    82.9
 238    3:10   78.8    28    2.0    78      4.8   918.7    0.00       0    82.9
 238    3:20   78.5    29    2.1    76      4.6   918.7    0.00       0    82.8
 238    3:30   78.3    30    2.9    78      7.7   918.8    0.00       0    82.7
 238    3:40   78.8    30    2.3    85      6.9   918.9    0.00       0    82.6
 238    3:50   78.2    30    2.0    81      6.1   919.0    0.00       0    82.5
 238    4:00   78.0    31    1.9    80      7.4   919.0    0.00       0    82.5
 238    4:10   78.2    30    3.6    67      8.5   919.1    0.00       0    82.4
 238    4:20   78.2    30    3.6    70      8.7   919.1    0.00       0    82.3
 238    4:30   77.9    30    2.7    79      7.0   919.1    0.00       0    82.2
 238    4:40   77.8    30    3.2    69      7.5   919.2    0.00       0    82.2
 238    4:50   77.5    30    3.6    65      8.3   919.2    0.00       0    82.1
 238    5:00   77.5    30    3.5    61     10.0   919.3    0.00       0    82.0
 238    5:10   77.5    30    3.7    69      9.3   919.4    0.00       0    81.9
 238    5:20   77.5    30    3.2    72      7.8   919.5    0.00       0    81.9
 238    5:30   77.5    30    3.1    70      6.9   919.7    0.00       0    81.8
 238    5:40   76.8    33    1.6   113      4.7   919.8    0.00       0    81.7
 238    5:50   73.8    48    1.7   130      3.2   919.9    0.00       0    81.6
 238    6:00   72.6    50    0.9    94      2.8   920.0    0.00       2    80.2
 238    6:10   73.0    38    1.1   100      2.9   920.1    0.00       3    80.4
 238    6:20   73.4    38    0.6   172      1.7   920.2    0.00       8    80.8
 238    6:30   73.3    39    0.5   203      2.7   920.3    0.00      16    80.8
 238    6:40   73.1    39    0.7   338      2.0   920.4    0.00      28    80.8
 238    6:50   73.2    40    0.0    76      0.9   920.4    0.00      38    80.8
 238    7:00   73.5    39    0.3   322      1.5   920.5    0.00      55    80.7
 238    7:10   75.0    36    0.5   118      2.3   920.6    0.00      73    80.6
 238    7:20   76.1    34    1.0   120      3.5   920.7    0.00      96    80.6
 238    7:30   77.1    32    2.7    71      6.9   920.7    0.00     117    80.5
 238    7:40   77.8    32    3.0    70      6.9   920.8    0.00     124    80.4
 238    7:50   78.4    31    2.3    77      6.7   920.8    0.00     280    80.4
 238    8:00   78.8    31    2.1   100      5.1   920.8    0.00     303    80.3
 238    8:10   79.1    31    2.2    82      5.3   920.8    0.00     325    80.2
 238    8:20   79.6    31    1.9    90      4.4   920.8    0.00     361    80.2
 238    8:30   80.3    31    2.7   105      6.6   920.8    0.00     395    80.2
 238    8:40   80.8    32    2.4   123      6.0   920.8    0.00     421    80.2
 238    8:50   80.6    32    2.6   163      5.7   920.8    0.00     442    80.1
 238    9:00   81.2    32    2.3   156      6.1   920.8    0.00     470    80.0
 238    9:10   82.0    30    1.9   162      3.7   920.8    0.00     506    80.0
 238    9:20   82.5    30    2.1   160      4.7   920.8    0.00     538    80.0
 238    9:30   82.1    31    2.7   201      6.1   920.8    0.00     559    80.0
 238    9:40   82.8    30    2.0   197      4.5   920.7    0.00     584    80.0
 238    9:50   83.8    29    2.0   184      3.6   920.7    0.00     614    80.0
 238   10:00   85.4    27    0.8   195      2.8   920.5    0.00     640    80.0
 238   10:10   86.1    27    1.4    65      4.2   920.4    0.00     664    80.0
 238   10:20   86.2    26    2.0    26      4.6   920.3    0.00     690    80.1
 238   10:30   86.8    26    2.0   291      5.4   920.2    0.00     704    80.1
 238   10:40   87.7    24    1.4    35      3.5   920.1    0.00     726    80.2
 238   10:50   88.6    24    1.5   234      4.1   920.0    0.00     747    80.3
 238   11:00   89.1    23    1.6   221      4.5   919.8    0.00     762    80.4
 238   11:10   89.9    23    0.9    68      2.7   919.7    0.00     772    80.5
 238   11:20   90.7    22    1.2    54      3.9   919.6    0.00     785    80.7
 238   11:30   90.4    21    1.0   201      3.1   919.5    0.00     810    80.8
 238   11:40   91.3    20    0.2   185      2.3   919.3    0.00     829    80.9

Return to St. George, Utah graphs page.


Western Regional Climate Center,wrcc@dri.edu